Time;durP1;ratioP1;P1;durP2;ratioP2;P2;SDS_P1;SDS_P2;PMS_P1;PMS_P2;Temp;Humidity;BMP_temperature;BMP_pressure;BME280_temperature;BME280_humidity;BME280_pressure;Samples;Min_cycle;Max_cycle;Signal;HPM_P1;HPM_P2
2021/04/02 00:00:42;;;;;;;15.60;3.53;;;;;;;6.59;65.75;102587.16;5046315;28;20088;-72
2021/04/02 00:03:15;;;;;;;;;;;;;;;6.62;65.49;102581.78;5051645;28;20106;-72
2021/04/02 00:05:41;;;;;;;14.55;3.80;;;;;;;6.59;66.00;102581.94;5058411;28;20298;-72
2021/04/02 00:08:07;;;;;;;16.52;3.40;;;;;;;6.61;65.39;102590.53;5061902;28;20106;-72
2021/04/02 00:10:42;;;;;;;17.15;3.55;;;;;;;6.55;66.04;102583.03;5055018;28;20522;-72
2021/04/02 00:13:08;;;;;;;23.13;4.38;;;;;;;6.49;66.28;102581.56;5041227;28;20110;-72
2021/04/02 00:15:34;;;;;;;15.05;3.45;;;;;;;6.39;66.05;102584.69;5055552;28;20056;-72
2021/04/02 00:18:00;;;;;;;13.93;3.90;;;;;;;6.35;66.00;102591.84;5043052;28;20123;-73
2021/04/02 00:20:26;;;;;;;31.10;4.90;;;;;;;6.38;65.76;102594.28;5064149;28;20059;-72
2021/04/02 00:22:52;;;;;;;16.27;3.70;;;;;;;6.31;66.79;102595.50;5056736;28;20057;-74
2021/04/02 00:25:20;;;;;;;14.90;4.38;;;;;;;6.23;66.73;102576.78;5054281;28;20061;-73
2021/04/02 00:27:46;;;;;;;18.85;4.03;;;;;;;6.28;66.93;102586.06;5055273;28;20044;-73
2021/04/02 00:30:19;;;;;;;18.10;4.32;;;;;;;6.24;67.23;102588.91;5039368;28;20468;-73
2021/04/02 00:32:45;;;;;;;15.63;4.40;;;;;;;6.23;67.14;102582.00;5044658;28;20110;-73
2021/04/02 00:35:12;;;;;;;15.57;3.70;;;;;;;6.20;66.80;102584.78;5048648;28;20060;-73
2021/04/02 00:37:40;;;;;;;13.05;4.03;;;;;;;6.16;67.37;102589.28;5053120;28;20057;-73
2021/04/02 00:40:12;;;;;;;21.42;4.75;;;;;;;6.15;67.66;102582.38;5035024;28;20056;-72
2021/04/02 00:42:38;;;;;;;19.70;4.85;;;;;;;6.11;67.45;102588.66;5050313;28;20053;-73
2021/04/02 00:45:05;;;;;;;11.77;4.85;;;;;;;6.12;67.94;102583.38;5053380;28;20057;-73
2021/04/02 00:47:31;;;;;;;13.60;4.07;;;;;;;6.03;67.68;102583.81;5049614;28;20072;-73
2021/04/02 00:49:57;;;;;;;17.40;5.07;;;;;;;6.03;68.48;102589.00;5056182;28;20526;-73
2021/04/02 00:52:23;;;;;;;17.67;4.53;;;;;;;6.02;67.28;102583.88;5045923;28;20048;-73
2021/04/02 00:54:49;;;;;;;17.73;4.57;;;;;;;6.01;67.81;102582.19;5049390;28;20060;-73
2021/04/02 00:57:15;;;;;;;15.00;4.15;;;;;;;5.97;67.65;102580.66;5043913;28;20099;-73
2021/04/02 00:59:42;;;;;;;20.85;5.15;;;;;;;5.85;68.01;102577.69;5056053;28;20056;-73
2021/04/02 01:02:08;;;;;;;22.13;4.88;;;;;;;5.87;68.11;102588.03;5049095;28;20060;-73
2021/04/02 01:04:34;;;;;;;22.20;4.47;;;;;;;5.81;68.02;102581.34;5060610;28;20480;-73
2021/04/02 01:07:00;;;;;;;14.85;4.65;;;;;;;5.81;68.37;102583.94;5044461;28;20055;-73
2021/04/02 01:09:26;;;;;;;14.70;4.63;;;;;;;5.81;68.08;102589.16;5048885;28;20064;-73
2021/04/02 01:11:52;;;;;;;14.82;4.30;;;;;;;5.78;67.95;102580.66;5057963;28;20541;-73
2021/04/02 01:14:19;;;;;;;19.10;4.57;;;;;;;5.76;68.33;102575.50;5048181;28;20139;-73
2021/04/02 01:16:45;;;;;;;23.17;4.63;;;;;;;5.72;68.40;102579.16;5052289;28;20167;-73
2021/04/02 01:19:20;;;;;;;16.90;4.25;;;;;;;5.69;68.38;102574.97;5038602;28;20106;-73
2021/04/02 01:22:09;;;;;;;15.75;4.38;;;;;;;5.66;68.22;102572.47;5060707;28;20114;-72
2021/04/02 01:24:54;;;;;;;24.55;4.65;;;;;;;5.64;67.88;102576.91;5043315;28;20048;-73
2021/04/02 01:27:29;;;;;;;19.73;4.00;;;;;;;5.59;68.51;102578.06;5048663;28;20108;-72
2021/04/02 01:29:59;;;;;;;15.95;3.70;;;;;;;5.63;68.14;102575.25;5043532;28;20099;-72
2021/04/02 01:32:41;;;;;;;14.18;3.55;;;;;;;5.60;68.19;102571.94;5050505;28;20130;-73
2021/04/02 01:35:20;;;;;;;22.92;4.57;;;;;;;5.51;68.03;102568.84;5038126;28;20431;-73
2021/04/02 01:38:12;;;;;;;15.63;3.58;;;;;;;5.49;68.81;102572.44;5038526;28;20044;-72
2021/04/02 01:40:43;;;;;;;21.75;4.60;;;;;;;5.44;68.47;102569.19;5037039;28;20059;-72
2021/04/02 01:43:14;;;;;;;13.60;3.75;;;;;;;5.43;68.55;102572.69;5042842;28;20052;-73
2021/04/02 01:45:42;;;;;;;14.70;3.47;;;;;;;5.37;68.89;102565.19;5051973;28;20083;-73
2021/04/02 01:48:10;;;;;;;13.70;3.97;;;;;;;5.42;68.49;102563.22;5049827;28;20117;-73
2021/04/02 01:50:39;;;;;;;17.95;4.15;;;;;;;5.32;68.96;102553.22;5060398;28;20063;-73
2021/04/02 01:53:05;;;;;;;;;;;;;;;5.32;68.87;102557.59;5055813;28;20057;-73
2021/04/02 01:55:39;;;;;;;15.75;4.47;;;;;;;5.33;68.70;102564.47;5054825;28;20322;-73
2021/04/02 01:58:07;;;;;;;14.63;3.65;;;;;;;5.30;68.84;102556.81;5056888;28;20049;-73
2021/04/02 02:00:41;;;;;;;15.60;4.20;;;;;;;5.32;68.35;102555.81;5036700;28;20125;-72
2021/04/02 02:03:08;;;;;;;13.00;3.80;;;;;;;5.30;68.75;102556.81;5049447;28;20139;-73
2021/04/02 02:05:34;;;;;;;16.48;3.60;;;;;;;5.31;68.72;102554.16;5044928;28;20106;-72
2021/04/02 02:08:03;;;;;;;11.77;2.78;;;;;;;5.30;68.86;102564.63;5043573;28;20118;-73
2021/04/02 02:10:30;;;;;;;18.27;3.83;;;;;;;5.26;68.53;102550.91;5043225;28;20125;-73
2021/04/02 02:12:59;;;;;;;17.77;3.60;;;;;;;5.29;68.63;102558.59;5061224;28;20126;-73
2021/04/02 02:15:31;;;;;;;15.27;3.50;;;;;;;5.27;68.83;102559.53;5057496;28;20055;-73
2021/04/02 02:17:59;;;;;;;17.13;3.60;;;;;;;5.27;68.90;102557.81;5040651;28;20099;-73
2021/04/02 02:20:30;;;;;;;15.02;3.13;;;;;;;5.31;68.43;102556.75;5057870;28;20450;-73
2021/04/02 02:22:58;;;;;;;14.25;3.10;;;;;;;5.35;68.14;102563.50;5055479;28;20106;-73
2021/04/02 02:25:27;;;;;;;18.08;3.50;;;;;;;5.31;68.52;102556.75;5055593;28;20048;-73
2021/04/02 02:27:54;;;;;;;15.52;2.95;;;;;;;5.30;68.70;102555.06;5051070;28;20146;-73
2021/04/02 02:30:24;;;;;;;17.38;2.67;;;;;;;5.33;68.54;102556.66;5045081;28;20101;-73
2021/04/02 02:32:51;;;;;;;12.43;2.88;;;;;;;5.35;68.39;102558.31;5051226;28;20060;-73
2021/04/02 02:35:18;;;;;;;24.15;4.10;;;;;;;5.37;68.22;102563.44;5061716;28;20110;-73
2021/04/02 02:37:45;;;;;;;12.52;2.90;;;;;;;5.26;68.83;102558.72;5062468;28;20452;-73
2021/04/02 02:40:26;;;;;;;10.32;3.05;;;;;;;5.30;68.92;102562.84;5055081;28;20529;-73
2021/04/02 02:42:54;;;;;;;12.38;3.10;;;;;;;5.26;68.68;102556.09;5060375;28;20056;-73
2021/04/02 02:45:21;;;;;;;13.75;3.03;;;;;;;5.22;68.97;102551.13;5056634;28;20056;-72
2021/04/02 02:47:48;;;;;;;18.67;4.30;;;;;;;5.27;68.73;102556.94;5067096;28;20048;-72
2021/04/02 02:50:18;;;;;;;7.50;2.88;;;;;;;5.26;69.42;102552.66;5049382;28;20057;-72
2021/04/02 02:52:47;;;;;;;15.48;3.13;;;;;;;5.32;68.70;102560.19;5053830;28;20049;-72
2021/04/02 02:55:14;;;;;;;;;;;;;;;5.32;68.93;102558.44;5050248;28;20139;-72
2021/04/02 02:57:43;;;;;;;15.63;3.28;;;;;;;5.33;69.29;102561.88;5051082;28;19924;-72
2021/04/02 03:00:20;;;;;;;11.02;3.33;;;;;;;5.37;69.01;102562.56;5059791;28;20900;-74
2021/04/02 03:02:48;;;;;;;14.27;3.28;;;;;;;5.39;68.66;102560.75;5055846;28;20106;-74
2021/04/02 03:05:18;;;;;;;17.98;3.33;;;;;;;5.37;68.95;102571.25;5063999;28;20052;-72
2021/04/02 03:07:48;;;;;;;14.70;2.90;;;;;;;5.40;68.91;102570.25;5060263;28;20519;-72
2021/04/02 03:10:14;;;;;;;17.40;3.60;;;;;;;5.34;69.36;102560.97;5051667;28;20064;-72
2021/04/02 03:12:44;;;;;;;14.80;3.90;;;;;;;5.31;69.63;102567.16;5058281;28;20137;-72
2021/04/02 03:15:13;;;;;;;18.50;4.25;;;;;;;5.31;69.58;102567.16;5064969;28;20078;-72
2021/04/02 03:17:42;;;;;;;21.10;3.72;;;;;;;5.25;69.49;102569.19;5041058;28;20468;-72
2021/04/02 03:20:10;;;;;;;13.65;3.25;;;;;;;5.29;69.76;102570.72;5057432;28;20072;-71
2021/04/02 03:22:36;;;;;;;12.98;3.63;;;;;;;5.32;69.46;102570.59;5063994;28;20105;-72
2021/04/02 03:25:09;;;;;;;12.95;3.50;;;;;;;5.28;69.79;102564.69;5041128;28;20488;-72
2021/04/02 03:27:41;;;;;;;13.55;3.35;;;;;;;5.31;70.35;102579.31;5044597;28;20049;-72
2021/04/02 03:30:10;;;;;;;13.00;3.72;;;;;;;5.31;70.28;102579.31;5040522;28;20076;-71
2021/04/02 03:32:41;;;;;;;17.75;4.43;;;;;;;5.32;70.47;102578.41;5047988;28;20056;-71
2021/04/02 03:35:10;;;;;;;14.70;4.18;;;;;;;5.28;70.81;102584.66;5050714;28;20118;-71
2021/04/02 03:37:38;;;;;;;17.70;4.60;;;;;;;5.29;70.56;102581.13;5045015;28;20067;-71
2021/04/02 03:40:09;;;;;;;21.83;4.60;;;;;;;5.22;71.69;102582.34;5057808;28;20060;-74
2021/04/02 03:42:38;;;;;;;15.15;4.38;;;;;;;5.20;71.75;102581.56;5064979;28;20452;-71
2021/04/02 03:45:07;;;;;;;16.92;4.47;;;;;;;5.18;71.38;102579.03;5058724;28;20056;-71
2021/04/02 03:47:33;;;;;;;16.00;5.35;;;;;;;5.17;71.51;102572.13;5039075;28;20123;-72
2021/04/02 03:50:03;;;;;;;22.08;5.13;;;;;;;5.20;71.62;102581.56;5051379;28;20081;-72
2021/04/02 03:52:45;;;;;;;16.85;4.97;;;;;;;5.20;71.35;102574.59;5048485;28;20114;-72
2021/04/02 03:55:14;;;;;;;14.40;4.82;;;;;;;5.21;71.73;102580.63;5046884;28;20057;-72
2021/04/02 03:57:42;;;;;;;14.70;4.97;;;;;;;5.14;72.22;102583.50;5039962;28;20183;-72
2021/04/02 04:00:17;;;;;;;22.20;5.00;;;;;;;5.24;71.90;102585.72;5060245;28;20118;-72
2021/04/02 04:02:44;;;;;;;13.98;4.50;;;;;;;5.25;72.02;102583.06;5051927;28;20056;-72
2021/04/02 04:05:13;;;;;;;19.48;5.53;;;;;;;5.31;71.79;102589.72;5053089;28;20056;-72
2021/04/02 04:07:43;;;;;;;17.67;5.40;;;;;;;5.32;72.18;102584.44;5057228;28;20045;-72
2021/04/02 04:10:15;;;;;;;22.05;6.32;;;;;;;5.32;72.25;102589.66;5048428;28;20056;-72
2021/04/02 04:12:42;;;;;;;16.15;5.72;;;;;;;5.32;72.14;102579.25;5056303;28;20064;-71
2021/04/02 04:15:12;;;;;;;19.20;6.25;;;;;;;5.34;72.40;102579.19;5038460;28;20057;-72
2021/04/02 04:17:40;;;;;;;21.30;5.75;;;;;;;5.37;72.20;102583.38;5065247;28;20052;-72
2021/04/02 04:20:10;;;;;;;18.33;6.10;;;;;;;5.40;72.50;102588.47;5051476;28;20466;-72
2021/04/02 04:22:39;;;;;;;20.33;6.38;;;;;;;5.38;72.52;102585.94;5042602;28;20056;-72
2021/04/02 04:25:07;;;;;;;15.80;5.88;;;;;;;5.39;72.01;102595.44;5040178;28;20111;-72
2021/04/02 04:27:35;;;;;;;20.45;6.00;;;;;;;5.35;72.35;102594.72;5045531;28;20072;-72
2021/04/02 04:30:03;;;;;;;20.00;5.45;;;;;;;5.35;72.29;102593.88;5054450;28;20134;-71
2021/04/02 04:32:31;;;;;;;22.42;6.18;;;;;;;5.33;71.62;102598.28;5042119;28;20052;-71
2021/04/02 04:34:59;;;;;;;15.98;5.85;;;;;;;5.34;71.55;102597.41;5060593;28;20044;-71
2021/04/02 04:37:26;;;;;;;18.77;5.30;;;;;;;5.32;71.72;102596.63;5054384;28;20056;-72
2021/04/02 04:39:55;;;;;;;17.40;5.40;;;;;;;5.31;71.66;102600.13;5064610;28;20044;-72
2021/04/02 04:42:22;;;;;;;;;;;;;;;5.29;71.66;102602.81;5046590;28;20516;-72
2021/04/02 04:44:51;;;;;;;21.92;5.15;;;;;;;5.32;71.87;102602.66;5057622;28;19986;-71
2021/04/02 04:47:17;;;;;;;20.50;5.47;;;;;;;5.35;71.07;102605.13;5049157;28;20650;-71
2021/04/02 04:49:44;;;;;;;17.60;5.47;;;;;;;5.32;71.53;102597.47;5039403;28;20053;-71
2021/04/02 04:52:14;;;;;;;21.10;5.57;;;;;;;5.27;71.56;102606.38;5057989;28;20056;-72
2021/04/02 04:54:45;;;;;;;20.77;6.25;;;;;;;5.25;71.81;102605.59;5054891;28;20507;-71
2021/04/02 04:57:12;;;;;;;22.20;5.65;;;;;;;5.24;71.27;102611.75;5050725;28;20562;-73
2021/04/02 04:59:40;;;;;;;15.02;5.72;;;;;;;5.22;71.41;102609.19;5045244;28;20479;-72
2021/04/02 05:02:08;;;;;;;17.17;5.05;;;;;;;5.22;71.09;102611.78;5054765;28;20052;-71
2021/04/02 05:04:35;;;;;;;13.03;5.37;;;;;;;5.20;71.42;102618.00;5052952;28;20052;-71
2021/04/02 05:07:03;;;;;;;22.17;5.45;;;;;;;5.17;71.27;102618.09;5055777;28;20199;-71
2021/04/02 05:09:30;;;;;;;15.27;5.05;;;;;;;5.14;71.29;102619.09;5049986;28;20374;-71
2021/04/02 05:11:59;;;;;;;;;;;;;;;5.12;71.54;102620.94;5050288;28;20540;-71
2021/04/02 05:14:25;;;;;;;15.32;5.32;;;;;;;5.09;71.47;102618.44;5051409;28;19985;-71
2021/04/02 05:16:53;;;;;;;22.73;5.13;;;;;;;5.03;71.48;102616.94;5049090;28;20130;-71
2021/04/02 05:19:20;;;;;;;17.33;5.07;;;;;;;5.08;71.50;102627.19;5050909;28;20056;-71
2021/04/02 05:21:46;;;;;;;14.40;4.95;;;;;;;5.07;71.52;102626.31;5049800;28;20052;-71
2021/04/02 05:24:12;;;;;;;13.98;5.13;;;;;;;5.05;71.47;102635.09;5054086;28;20052;-71
2021/04/02 05:26:39;;;;;;;14.68;5.30;;;;;;;5.04;71.23;102638.63;5046467;28;20805;-71
2021/04/02 05:29:06;;;;;;;19.05;5.07;;;;;;;5.00;71.12;102631.84;5043056;28;20453;-72
2021/04/02 05:31:33;;;;;;;16.80;4.82;;;;;;;5.03;71.29;102640.34;5059610;28;20117;-72
2021/04/02 05:34:12;;;;;;;22.50;6.35;;;;;;;5.00;71.37;102640.50;5053866;28;20491;-73
2021/04/02 05:36:38;;;;;;;18.75;4.75;;;;;;;5.01;70.98;102641.34;5056434;28;20056;-72
2021/04/02 05:39:05;;;;;;;13.95;5.05;;;;;;;4.96;71.40;102633.75;5045939;28;20983;-72
2021/04/02 05:41:37;;;;;;;20.42;6.03;;;;;;;4.95;71.27;102639.84;5063417;28;20117;-71
2021/04/02 05:44:10;;;;;;;16.17;5.20;;;;;;;4.98;71.20;102639.72;5052756;28;20109;-71
2021/04/02 05:46:37;;;;;;;18.90;4.90;;;;;;;4.97;71.34;102637.19;5056042;28;20053;-71
2021/04/02 05:49:05;;;;;;;17.15;6.70;;;;;;;4.97;71.18;102643.22;5062449;28;20052;-71
2021/04/02 05:51:32;;;;;;;14.93;5.80;;;;;;;4.97;71.27;102642.38;5047923;28;20487;-71
2021/04/02 05:54:00;;;;;;;25.10;5.90;;;;;;;4.98;71.34;102637.13;5049123;28;20484;-71
2021/04/02 05:56:26;;;;;;;26.25;6.47;;;;;;;5.02;71.25;102630.00;5044636;28;20055;-71
2021/04/02 05:58:53;;;;;;;13.50;5.53;;;;;;;5.04;71.33;102636.03;5047442;28;20057;-71
2021/04/02 06:01:19;;;;;;;20.98;5.40;;;;;;;5.01;71.53;102626.56;5053480;28;20049;-72
2021/04/02 06:03:46;;;;;;;18.00;5.40;;;;;;;5.10;70.99;102638.34;5048262;28;20041;-73
2021/04/02 06:06:14;;;;;;;16.60;5.00;;;;;;;5.08;71.10;102630.63;5062513;28;20052;-73
2021/04/02 06:08:44;;;;;;;15.48;5.05;;;;;;;5.13;70.97;102633.84;5051924;28;20103;-73
2021/04/02 06:11:12;;;;;;;23.30;5.22;;;;;;;5.13;71.13;102630.41;5039628;28;20467;-73
2021/04/02 06:13:38;;;;;;;14.82;4.60;;;;;;;5.14;70.70;102637.31;5048643;28;20598;-72
2021/04/02 06:16:05;;;;;;;29.10;5.85;;;;;;;5.13;70.81;102640.81;5063172;28;20571;-72
2021/04/02 06:18:39;;;;;;;29.90;5.35;;;;;;;5.14;71.00;102639.91;5055930;28;20075;-72
2021/04/02 06:21:06;;;;;;;16.77;4.90;;;;;;;5.15;71.16;102642.44;5054375;28;20061;-72
2021/04/02 06:23:34;;;;;;;15.90;4.47;;;;;;;5.12;70.54;102633.94;5037781;28;20637;-72
2021/04/02 06:26:04;;;;;;;23.30;4.18;;;;;;;5.19;70.64;102635.34;5037872;28;20087;-72
2021/04/02 06:28:32;;;;;;;19.38;4.50;;;;;;;5.20;70.81;102633.59;5053807;28;20059;-72
2021/04/02 06:31:07;;;;;;;18.30;4.47;;;;;;;5.20;70.80;102631.00;5037332;28;20714;-71
2021/04/02 06:33:38;;;;;;;24.73;5.15;;;;;;;5.13;70.67;102630.41;5053473;28;20056;-72
2021/04/02 06:36:16;;;;;;;11.48;3.80;;;;;;;5.19;70.61;102632.72;5053912;28;20107;-72
2021/04/02 06:38:45;;;;;;;18.60;4.65;;;;;;;5.22;70.56;102629.16;5043217;28;20050;-72
2021/04/02 06:41:11;;;;;;;;;;;;;;;5.26;70.33;102628.97;5052419;28;20090;-73
2021/04/02 06:43:46;;;;;;;19.58;5.63;;;;;;;5.32;70.07;102636.50;5060868;28;20752;-73
2021/04/02 06:46:39;;;;;;;25.13;3.83;;;;;;;5.31;70.55;102629.63;5045892;28;20110;-73
2021/04/02 06:49:11;;;;;;;16.40;5.00;;;;;;;5.37;70.32;102643.25;5043309;28;20053;-73
2021/04/02 06:51:41;;;;;;;16.00;3.90;;;;;;;5.37;70.15;102649.31;5037291;28;20151;-72
2021/04/02 06:54:22;;;;;;;14.48;3.58;;;;;;;5.40;69.85;102654.38;5042256;28;20147;-73
2021/04/02 06:57:03;;;;;;;11.43;3.70;;;;;;;5.43;69.25;102643.84;5062631;28;20534;-72
2021/04/02 06:59:32;;;;;;;21.40;3.30;;;;;;;5.46;69.47;102633.28;5052891;28;20082;-73
2021/04/02 07:02:01;;;;;;;14.65;3.63;;;;;;;5.47;69.39;102640.19;5063203;28;20084;-72
2021/04/02 07:04:30;;;;;;;17.77;3.92;;;;;;;5.50;69.13;102645.22;5043274;28;20080;-72
2021/04/02 07:06:57;;;;;;;14.43;3.30;;;;;;;5.51;69.27;102646.94;5045236;28;20091;-72
2021/04/02 07:09:25;;;;;;;27.70;4.50;;;;;;;5.55;69.29;102650.25;5045850;28;20076;-72
2021/04/02 07:11:55;;;;;;;16.70;3.85;;;;;;;5.58;68.74;102657.91;5057917;28;20491;-72
2021/04/02 07:14:22;;;;;;;19.55;3.58;;;;;;;5.57;68.64;102648.44;5044623;28;20606;-72
2021/04/02 07:16:50;;;;;;;21.83;3.55;;;;;;;5.61;68.80;102649.97;5045560;28;20602;-72
2021/04/02 07:19:16;;;;;;;18.25;3.80;;;;;;;5.66;68.54;102658.41;5058054;28;20103;-72
2021/04/02 07:21:43;;;;;;;17.63;3.50;;;;;;;5.70;68.25;102652.16;5051645;28;20079;-72
2021/04/02 07:24:13;;;;;;;20.58;3.65;;;;;;;5.68;67.92;102661.78;5043736;28;20060;-72
2021/04/02 07:26:39;;;;;;;17.92;3.33;;;;;;;5.73;67.61;102659.81;5053299;28;20052;-71
2021/04/02 07:29:06;;;;;;;21.75;3.85;;;;;;;5.75;67.63;102662.38;5058874;28;20520;-71
2021/04/02 07:31:33;;;;;;;19.45;3.25;;;;;;;5.82;67.76;102663.78;5046539;28;20048;-72
2021/04/02 07:34:00;;;;;;;18.60;3.40;;;;;;;5.94;67.63;102670.19;5060948;28;20143;-71
2021/04/02 07:36:26;;;;;;;19.58;4.15;;;;;;;6.03;66.69;102664.56;5054081;28;20048;-71
2021/04/02 07:38:53;;;;;;;16.08;3.25;;;;;;;6.07;66.50;102660.06;5048215;28;20056;-71
2021/04/02 07:41:21;;;;;;;25.45;3.40;;;;;;;6.18;66.20;102665.63;5048598;28;20060;-72
2021/04/02 07:43:58;;;;;;;14.57;2.90;;;;;;;6.28;65.63;102659.03;5043982;28;20057;-72
2021/04/02 07:46:29;;;;;;;15.38;3.95;;;;;;;6.41;65.59;102663.66;5047935;28;20126;-71
2021/04/02 07:49:09;;;;;;;22.58;4.50;;;;;;;6.55;65.46;102666.47;5041319;28;20466;-72
2021/04/02 07:51:44;;;;;;;26.42;3.92;;;;;;;6.75;65.44;102667.25;5063793;28;20900;-71
2021/04/02 07:54:28;;;;;;;15.05;3.75;;;;;;;6.91;65.22;102663.78;5058649;28;20052;-72
2021/04/02 07:56:56;;;;;;;13.25;3.13;;;;;;;7.02;64.09;102672.84;5058838;28;20118;-71
2021/04/02 07:59:42;;;;;;;31.70;5.35;;;;;;;7.09;63.96;102675.03;5057685;28;20098;-71
2021/04/02 08:02:10;;;;;;;21.83;3.33;;;;;;;7.05;62.33;102672.66;5051170;28;20106;-72
2021/04/02 08:04:51;;;;;;;14.90;2.47;;;;;;;7.01;62.79;102681.59;5054864;28;20055;-73
2021/04/02 08:07:19;;;;;;;19.02;2.80;;;;;;;6.96;62.45;102684.44;5064055;28;20045;-73
2021/04/02 08:09:49;;;;;;;17.45;2.83;;;;;;;6.92;62.40;102683.75;5056223;28;20427;-72
2021/04/02 08:12:34;;;;;;;;;;;;;;;6.88;61.62;102690.03;5050643;28;20053;-71
2021/04/02 08:15:07;;;;;;;15.13;2.60;;;;;;;6.88;62.24;102689.16;5060526;28;19982;-71
2021/04/02 08:17:33;;;;;;;9.02;2.15;;;;;;;6.80;61.54;102686.97;5054126;28;20523;-70
2021/04/02 08:20:03;;;;;;;9.98;2.15;;;;;;;6.88;61.40;102699.59;5062224;28;20059;-71
2021/04/02 08:22:29;;;;;;;12.77;2.45;;;;;;;6.89;61.44;102691.72;5057073;28;20060;-74
2021/04/02 08:24:55;;;;;;;19.70;2.83;;;;;;;7.05;61.34;102699.59;5063926;28;20041;-74
2021/04/02 08:27:21;;;;;;;18.13;2.78;;;;;;;7.23;61.78;102700.47;5055329;28;20048;-74
2021/04/02 08:30:01;;;;;;;12.10;2.50;;;;;;;7.39;60.83;102700.50;5050131;28;20114;-73
2021/04/02 08:32:27;;;;;;;15.02;2.70;;;;;;;7.53;60.69;102691.97;5055580;28;20067;-74
2021/04/02 08:34:53;;;;;;;9.07;2.95;;;;;;;7.73;60.25;102696.94;5058833;28;20072;-74
2021/04/02 08:37:19;;;;;;;15.23;3.13;;;;;;;7.95;60.20;102695.78;5054409;28;20258;-74
2021/04/02 08:39:46;;;;;;;9.60;2.53;;;;;;;8.03;58.27;102693.59;5056746;28;20052;-73
2021/04/02 08:42:12;;;;;;;13.65;2.95;;;;;;;8.11;58.06;102701.03;5062616;28;20114;-73
2021/04/02 08:44:44;;;;;;;15.68;3.03;;;;;;;8.15;58.02;102696.47;5053143;28;20141;-73
2021/04/02 08:47:13;;;;;;;13.38;3.38;;;;;;;8.16;57.84;102701.63;5049008;28;20095;-75
2021/04/02 08:49:47;;;;;;;13.40;3.00;;;;;;;8.23;57.86;102694.28;5052896;28;20049;-75
2021/04/02 08:52:19;;;;;;;13.85;3.20;;;;;;;8.21;57.64;102689.16;5058938;28;20442;-75
2021/04/02 08:54:46;;;;;;;20.25;4.30;;;;;;;8.22;56.46;102698.66;5049369;28;20163;-75
2021/04/02 08:57:14;;;;;;;15.48;3.58;;;;;;;8.17;56.20;102695.47;5037766;28;20492;-75
2021/04/02 08:59:46;;;;;;;21.33;5.63;;;;;;;8.19;56.38;102693.59;5046740;28;20114;-73
2021/04/02 09:02:16;;;;;;;15.38;4.70;;;;;;;8.20;56.00;102695.31;5046928;28;20154;-73
2021/04/02 09:04:43;;;;;;;16.98;3.70;;;;;;;8.23;56.05;102695.16;5054000;28;20578;-73
2021/04/02 09:07:10;;;;;;;12.15;3.88;;;;;;;8.35;57.23;102691.00;5049993;28;20117;-73
2021/04/02 09:09:40;;;;;;;21.52;4.40;;;;;;;8.42;56.01;102704.59;5056102;28;20053;-73
2021/04/02 09:12:13;;;;;;;11.23;3.33;;;;;;;8.52;56.52;102698.75;5050748;28;20052;-73
2021/04/02 09:14:48;;;;;;;10.15;4.00;;;;;;;8.59;55.29;102701.03;5052327;28;20060;-73
2021/04/02 09:17:25;;;;;;;15.13;3.72;;;;;;;8.59;55.01;102706.28;5063440;28;20515;-73
2021/04/02 09:19:53;;;;;;;19.63;4.03;;;;;;;8.68;55.02;102708.34;5044262;28;20053;-73
2021/04/02 09:22:20;;;;;;;13.48;3.40;;;;;;;8.70;54.43;102701.25;5061369;28;20052;-72
2021/04/02 09:24:47;;;;;;;15.02;3.50;;;;;;;8.69;54.57;102710.88;5054361;28;20052;-73
2021/04/02 09:27:15;;;;;;;13.68;3.58;;;;;;;8.76;55.37;102711.38;5045604;28;20512;-74
2021/04/02 09:29:59;;;;;;;11.02;3.70;;;;;;;8.70;54.84;102702.09;5049277;28;20053;-73
2021/04/02 09:32:30;;;;;;;15.10;4.00;;;;;;;8.59;54.76;102691.41;5063477;28;20048;-73
2021/04/02 09:35:02;;;;;;;11.18;3.08;;;;;;;8.58;54.69;102697.56;5050428;28;20084;-73
2021/04/02 09:37:29;;;;;;;12.82;3.90;;;;;;;8.55;54.49;102691.69;5046806;28;20126;-73
2021/04/02 09:40:08;;;;;;;13.10;3.92;;;;;;;8.43;54.02;102698.44;5048774;28;20601;-73
2021/04/02 09:42:36;;;;;;;12.82;3.70;;;;;;;8.58;54.96;102694.09;5054952;28;20063;-72
2021/04/02 09:45:11;;;;;;;18.30;4.47;;;;;;;8.65;54.62;102687.59;5063659;28;20149;-73
2021/04/02 09:47:42;;;;;;;15.63;4.10;;;;;;;8.70;54.49;102696.00;5056832;28;20054;-74
2021/04/02 09:50:10;;;;;;;14.88;4.45;;;;;;;8.67;53.83;102681.34;5063398;28;20117;-72
2021/04/02 09:52:40;;;;;;;14.88;5.10;;;;;;;8.73;53.87;102677.53;5053140;28;20055;-73
2021/04/02 09:55:09;;;;;;;20.42;4.90;;;;;;;8.79;53.94;102679.78;5049615;28;20052;-74
2021/04/02 09:57:35;;;;;;;16.63;4.82;;;;;;;8.71;54.12;102668.94;5047201;28;20389;-74
2021/04/02 10:00:03;;;;;;;18.73;5.68;;;;;;;8.81;53.56;102687.56;5053009;28;20121;-72
2021/04/02 10:02:29;;;;;;;16.83;6.22;;;;;;;8.79;53.86;102679.78;5055476;28;20068;-72
2021/04/02 10:04:55;;;;;;;24.33;6.20;;;;;;;8.84;53.44;102693.47;5049527;28;20056;-73
2021/04/02 10:07:22;;;;;;;25.73;6.78;;;;;;;8.91;54.00;102691.31;5059242;28;20056;-73
2021/04/02 10:09:48;;;;;;;27.60;7.63;;;;;;;8.95;54.37;102692.81;5040192;28;20080;-72
2021/04/02 10:12:14;;;;;;;18.02;5.78;;;;;;;8.88;53.22;102694.97;5060819;28;20137;-73
2021/04/02 10:14:41;;;;;;;18.33;6.28;;;;;;;8.96;53.81;102699.75;5055477;28;20147;-73
2021/04/02 10:17:11;;;;;;;15.55;5.85;;;;;;;8.97;53.80;102693.56;5059809;28;20538;-73
2021/04/02 10:19:38;;;;;;;21.85;5.38;;;;;;;9.08;52.90;102693.78;5052023;28;20048;-74
2021/04/02 10:22:06;;;;;;;20.42;6.13;;;;;;;9.09;52.51;102695.50;5048024;28;20075;-72
2021/04/02 10:24:32;;;;;;;20.70;5.60;;;;;;;9.14;52.60;102683.91;5059788;28;20165;-74
2021/04/02 10:26:59;;;;;;;17.40;5.13;;;;;;;9.35;53.11;102697.47;5057132;28;20443;-72
2021/04/02 10:29:28;;;;;;;17.88;5.85;;;;;;;9.38;52.00;102695.50;5061900;28;20857;-72
2021/04/02 10:31:55;;;;;;;20.17;4.45;;;;;;;9.43;51.47;102687.38;5057356;28;20052;-71
2021/04/02 10:34:22;;;;;;;16.77;4.35;;;;;;;9.62;52.17;102684.47;5057613;28;20052;-73
2021/04/02 10:36:48;;;;;;;16.75;4.20;;;;;;;9.69;51.35;102685.78;5057315;28;20557;-71
2021/04/02 10:39:14;;;;;;;16.08;4.78;;;;;;;9.70;51.28;102697.94;5049060;28;20870;-73
2021/04/02 10:41:40;;;;;;;16.67;3.97;;;;;;;9.95;50.46;102692.00;5056320;28;20053;-74
2021/04/02 10:44:07;;;;;;;15.02;4.32;;;;;;;9.97;49.49;102682.25;5048491;28;20052;-74
2021/04/02 10:46:33;;;;;;;14.23;3.78;;;;;;;10.22;49.52;102680.72;5061317;28;20084;-73
2021/04/02 10:48:59;;;;;;;16.13;4.30;;;;;;;10.30;49.66;102675.84;5052694;28;20052;-72
2021/04/02 10:51:25;;;;;;;18.02;3.90;;;;;;;10.45;50.55;102677.47;5052379;28;20052;-71
2021/04/02 10:54:00;;;;;;;17.42;4.78;;;;;;;10.50;49.23;102685.03;5055974;28;20109;-72
2021/04/02 10:56:30;;;;;;;14.50;3.88;;;;;;;10.57;49.21;102680.25;5051663;28;20108;-75
2021/04/02 10:58:56;;;;;;;18.75;3.85;;;;;;;10.74;48.69;102684.34;5057445;28;20109;-71
2021/04/02 11:01:22;;;;;;;17.88;4.28;;;;;;;10.56;47.24;102687.25;5048473;28;20060;-71
2021/04/02 11:03:48;;;;;;;19.13;4.32;;;;;;;10.48;48.14;102679.88;5053942;28;20048;-71
2021/04/02 11:06:15;;;;;;;13.50;3.22;;;;;;;10.63;48.74;102683.28;5060360;28;20056;-70
2021/04/02 11:08:41;;;;;;;13.25;3.55;;;;;;;10.55;48.40;102654.09;5059763;28;20051;-73
2021/04/02 11:11:07;;;;;;;13.50;3.08;;;;;;;10.84;48.75;102675.78;5053038;28;20064;-73
2021/04/02 11:13:34;;;;;;;15.13;3.50;;;;;;;10.83;47.67;102678.50;5065312;28;20056;-73
2021/04/02 11:16:00;;;;;;;12.00;3.10;;;;;;;10.77;47.80;102682.38;5061347;28;20048;-71
2021/04/02 11:18:26;;;;;;;13.38;3.40;;;;;;;11.41;47.01;102679.78;5054091;28;20463;-72
2021/04/02 11:20:52;;;;;;;12.27;3.50;;;;;;;11.05;46.09;102680.53;5060115;28;20125;-72
2021/04/02 11:23:19;;;;;;;10.85;2.90;;;;;;;10.92;46.10;102680.53;5047694;28;20057;-72
2021/04/02 11:25:46;;;;;;;16.42;4.30;;;;;;;11.03;46.36;102682.41;5073715;28;20057;-72
2021/04/02 11:28:12;;;;;;;13.77;3.47;;;;;;;10.98;46.82;102671.41;5055375;28;20053;-72
2021/04/02 11:30:39;;;;;;;16.33;3.30;;;;;;;10.85;46.62;102666.13;5053912;28;20068;-72
2021/04/02 11:33:05;;;;;;;17.35;3.65;;;;;;;10.98;47.26;102666.97;5060342;28;20491;-71
2021/04/02 11:35:33;;;;;;;15.82;3.22;;;;;;;10.85;46.87;102651.19;5047581;28;20056;-72